Time;durP1;ratioP1;P1;durP2;ratioP2;P2;SDS_P1;SDS_P2;PMS_P1;PMS_P2;Temp;Humidity;BMP_temperature;BMP_pressure;BME280_temperature;BME280_humidity;BME280_pressure;Samples;Min_cycle;Max_cycle;Signal;HPM_P1;HPM_P2
2021/08/15 00:00:33;;;;;;;8.77;7.80;;;692.10;2124.80;;;;;;5110767;27;20051;-76
2021/08/15 00:02:59;;;;;;;10.75;6.63;;;692.10;2124.80;;;;;;5107983;28;20598;-75
2021/08/15 00:05:24;;;;;;;9.40;7.03;;;692.10;2124.80;;;;;;5112886;28;20055;-75
2021/08/15 00:07:50;;;;;;;9.60;7.40;;;692.00;2124.80;;;;;;5103239;28;20430;-76
2021/08/15 00:10:16;;;;;;;15.85;8.75;;;692.00;2124.80;;;;;;5113205;28;20023;-76
2021/08/15 00:12:43;;;;;;;11.45;7.18;;;691.90;2150.40;;;;;;5114442;28;20024;-76
2021/08/15 00:15:11;;;;;;;11.38;8.05;;;692.00;2150.40;;;;;;5108927;28;20035;-76
2021/08/15 00:17:37;;;;;;;16.23;7.47;;;692.00;2124.80;;;;;;5106884;28;20055;-76
2021/08/15 00:20:03;;;;;;;10.05;7.40;;;692.00;2150.40;;;;;;5114003;28;20066;-76
2021/08/15 00:22:29;;;;;;;9.13;7.78;;;692.00;2176.00;;;;;;5107782;28;20031;-76
2021/08/15 00:24:55;;;;;;;11.20;6.95;;;692.00;2176.00;;;;;;5112022;28;20103;-76
2021/08/15 00:27:21;;;;;;;13.38;7.47;;;692.00;2176.00;;;;;;5110140;28;20084;-76
2021/08/15 00:29:47;;;;;;;9.75;7.80;;;692.00;2176.00;;;;;;5100482;28;20016;-76
2021/08/15 00:32:13;;;;;;;25.38;19.73;;;692.00;2150.40;;;;;;5109290;28;20028;-76
2021/08/15 00:34:39;;;;;;;27.88;21.00;;;691.90;2150.40;;;;;;5112726;28;20058;-76
2021/08/15 00:37:05;;;;;;;27.90;20.25;;;691.90;2150.40;;;;;;5103503;28;20047;-77
2021/08/15 00:39:30;;;;;;;15.02;10.20;;;691.80;2176.00;;;;;;5103239;28;20027;-76
2021/08/15 00:41:57;;;;;;;11.25;9.02;;;691.80;2176.00;;;;;;5111566;28;20032;-77
2021/08/15 00:44:23;;;;;;;13.50;9.10;;;691.80;2176.00;;;;;;5111588;28;20031;-76
2021/08/15 00:46:49;;;;;;;14.20;8.18;;;691.80;2176.00;;;;;;5111150;28;20024;-75
2021/08/15 00:49:15;;;;;;;10.88;9.60;;;691.80;2176.00;;;;;;5113336;28;20510;-76
2021/08/15 00:51:41;;;;;;;12.93;9.00;;;691.80;2201.60;;;;;;5109651;28;20056;-76
2021/08/15 00:54:07;;;;;;;14.80;8.88;;;691.80;2176.00;;;;;;5097424;28;20028;-76
2021/08/15 00:56:33;;;;;;;12.15;9.23;;;691.80;2201.60;;;;;;5112038;28;20034;-76
2021/08/15 00:59:03;;;;;;;15.60;8.27;;;691.80;2176.00;;;;;;5101340;27;20031;-76
2021/08/15 01:01:32;;;;;;;11.98;8.68;;;691.80;2201.60;;;;;;5109173;28;20559;-76
2021/08/15 01:04:02;;;;;;;12.27;7.78;;;691.80;2201.60;;;;;;5112800;28;20475;-76
2021/08/15 01:06:29;;;;;;;8.65;7.60;;;691.70;2201.60;;;;;;5112939;28;20023;-76
2021/08/15 01:08:54;;;;;;;13.82;8.60;;;691.70;2201.60;;;;;;5110181;27;20035;-76
2021/08/15 01:11:20;;;;;;;10.98;8.00;;;691.70;2176.00;;;;;;5103419;28;20027;-76
2021/08/15 01:13:46;;;;;;;13.35;7.47;;;691.70;2201.60;;;;;;5113031;28;20757;-76
2021/08/15 01:16:12;;;;;;;11.80;7.90;;;691.70;2201.60;;;;;;5112662;28;20468;-76
2021/08/15 01:18:39;;;;;;;9.20;7.18;;;691.70;2201.60;;;;;;5113071;28;20374;-76
2021/08/15 01:21:13;;;;;;;10.88;7.13;;;691.70;2201.60;;;;;;5111150;28;20507;-76
2021/08/15 01:23:41;;;;;;;11.40;8.18;;;691.70;2201.60;;;;;;5111851;28;20027;-76
2021/08/15 01:26:09;;;;;;;9.30;7.53;;;691.70;2201.60;;;;;;5103057;28;20080;-76
2021/08/15 01:28:35;;;;;;;11.75;7.25;;;691.70;2201.60;;;;;;5109819;28;20803;-76
2021/08/15 01:31:01;;;;;;;11.30;7.70;;;691.60;2176.00;;;;;;5111491;28;20056;-76
2021/08/15 01:33:29;;;;;;;17.63;13.13;;;691.20;2201.60;;;;;;5110303;28;20149;-76
2021/08/15 01:35:56;;;;;;;25.63;18.77;;;691.60;2176.00;;;;;;5105490;28;20187;-75
2021/08/15 01:38:25;;;;;;;26.73;19.13;;;691.60;2201.60;;;;;;5104315;28;20036;-76
2021/08/15 01:40:52;;;;;;;15.05;11.75;;;691.60;2201.60;;;;;;5107032;28;20372;-76
2021/08/15 01:43:18;;;;;;;14.18;10.57;;;691.50;2227.20;;;;;;5111013;28;20543;-76
2021/08/15 01:45:44;;;;;;;16.67;12.90;;;691.50;2227.20;;;;;;5107525;28;20127;-77
2021/08/15 01:48:09;;;;;;;16.38;13.18;;;691.50;2227.20;;;;;;5110791;28;20499;-76
2021/08/15 01:50:36;;;;;;;18.42;12.85;;;691.40;2252.80;;;;;;5110534;28;20031;-76
2021/08/15 01:53:05;;;;;;;12.57;10.85;;;691.40;2252.80;;;;;;5108777;28;20042;-76
2021/08/15 01:55:31;;;;;;;13.43;9.30;;;691.40;2252.80;;;;;;5101105;28;20024;-76
2021/08/15 01:57:57;;;;;;;12.98;10.07;;;691.40;2227.20;;;;;;5107784;28;20046;-76
2021/08/15 02:00:22;;;;;;;13.65;11.70;;;691.40;2252.80;;;;;;5110748;28;20020;-77
2021/08/15 02:02:48;;;;;;;15.20;10.88;;;691.40;2252.80;;;;;;5112095;28;20094;-76
2021/08/15 02:05:19;;;;;;;14.30;10.45;;;691.30;2252.80;;;;;;5101957;28;20047;-76
2021/08/15 02:07:46;;;;;;;14.80;10.70;;;691.20;2278.40;;;;;;5107457;28;20024;-75
2021/08/15 02:10:13;;;;;;;14.70;9.63;;;691.20;2278.40;;;;;;5109932;28;20036;-76
2021/08/15 02:12:39;;;;;;;15.13;8.68;;;691.20;2278.40;;;;;;5099111;28;20042;-76
2021/08/15 02:15:05;;;;;;;14.30;9.63;;;691.20;2304.00;;;;;;5111194;28;20476;-75
2021/08/15 02:17:31;;;;;;;13.15;9.10;;;691.20;2278.40;;;;;;5106583;28;20024;-75
2021/08/15 02:19:57;;;;;;;10.25;8.02;;;666.50;2278.40;;;;;;5103655;28;20020;-76
2021/08/15 02:22:22;;;;;;;14.63;8.73;;;666.50;2278.40;;;;;;5107909;28;20055;-76
2021/08/15 02:24:48;;;;;;;15.48;8.68;;;666.50;2278.40;;;;;;5100237;28;20040;-76
2021/08/15 02:27:14;;;;;;;15.52;10.23;;;666.50;2304.00;;;;;;5110465;28;20042;-76
2021/08/15 02:29:40;;;;;;;12.48;8.88;;;666.50;2304.00;;;;;;5110784;28;20032;-76
2021/08/15 02:32:06;;;;;;;13.13;8.82;;;666.50;2304.00;;;;;;5106746;28;20028;-76
2021/08/15 02:34:31;;;;;;;14.73;10.95;;;666.50;2304.00;;;;;;5095591;28;20065;-76
2021/08/15 02:36:57;;;;;;;12.60;10.80;;;666.50;2304.00;;;;;;5111382;28;20031;-76
2021/08/15 02:39:23;;;;;;;15.57;9.07;;;666.50;2329.60;;;;;;5108048;28;20024;-76
2021/08/15 02:41:48;;;;;;;14.05;9.98;;;666.50;2304.00;;;;;;5099621;28;20150;-76
2021/08/15 02:44:14;;;;;;;18.23;10.13;;;666.50;2329.60;;;;;;5116028;28;20024;-76
2021/08/15 02:46:40;;;;;;;17.52;10.68;;;666.50;2329.60;;;;;;5128100;28;20016;-77
2021/08/15 02:49:06;;;;;;;10.32;8.65;;;666.30;2329.60;;;;;;5121730;28;20016;-76
2021/08/15 02:51:31;;;;;;;17.88;8.70;;;666.30;2355.20;;;;;;5113778;28;20087;-77
2021/08/15 02:53:58;;;;;;;12.95;8.77;;;666.30;2380.80;;;;;;5104878;28;20069;-77
2021/08/15 02:56:24;;;;;;;12.93;9.15;;;666.20;2380.80;;;;;;5110024;28;20039;-77
2021/08/15 02:58:49;;;;;;;11.48;9.05;;;666.20;2406.40;;;;;;5110314;28;20023;-76
2021/08/15 03:01:15;;;;;;;13.50;9.05;;;666.20;2432.00;;;;;;5110338;28;20029;-76
2021/08/15 03:03:41;;;;;;;13.05;9.05;;;666.20;2432.00;;;;;;5111324;28;20450;-77
2021/08/15 03:06:07;;;;;;;9.20;8.30;;;666.20;2432.00;;;;;;5106838;28;20055;-77
2021/08/15 03:08:32;;;;;;;12.10;8.57;;;666.10;2432.00;;;;;;5105818;28;20036;-76
2021/08/15 03:10:58;;;;;;;10.40;8.65;;;666.10;2432.00;;;;;;5110124;28;20020;-77
2021/08/15 03:13:24;;;;;;;11.48;9.15;;;666.10;2432.00;;;;;;5092215;28;20030;-77
2021/08/15 03:15:49;;;;;;;11.30;8.85;;;666.10;2432.00;;;;;;5123907;27;20020;-76
2021/08/15 03:18:18;;;;;;;12.57;8.68;;;666.10;2432.00;;;;;;5105347;28;20080;-76
2021/08/15 03:20:44;;;;;;;12.57;8.88;;;665.90;2432.00;;;;;;5106835;28;20392;-76
2021/08/15 03:23:10;;;;;;;12.45;9.02;;;665.90;2432.00;;;;;;5110968;28;20099;-76
2021/08/15 03:25:37;;;;;;;11.65;9.30;;;665.80;2432.00;;;;;;5108487;28;20142;-76
2021/08/15 03:28:07;;;;;;;14.35;9.43;;;665.80;2432.00;;;;;;5114062;28;20055;-76
2021/08/15 03:30:33;;;;;;;13.23;10.45;;;665.80;2432.00;;;;;;5115415;28;20024;-76
2021/08/15 03:32:59;;;;;;;14.50;9.38;;;665.80;2432.00;;;;;;5113585;28;20028;-76
2021/08/15 03:35:25;;;;;;;14.52;9.88;;;665.70;2432.00;;;;;;5113834;28;20042;-76
2021/08/15 03:37:51;;;;;;;10.57;8.82;;;665.70;2432.00;;;;;;5114844;28;20415;-76
2021/08/15 03:40:17;;;;;;;15.63;10.90;;;665.70;2432.00;;;;;;5110381;28;20044;-76
2021/08/15 03:42:43;;;;;;;13.45;8.82;;;665.60;2432.00;;;;;;5111506;28;20027;-76
2021/08/15 03:45:09;;;;;;;13.68;10.45;;;665.60;2432.00;;;;;;5115007;28;20026;-76
2021/08/15 03:47:35;;;;;;;13.50;9.95;;;640.90;2432.00;;;;;;5105878;28;20024;-75
2021/08/15 03:50:02;;;;;;;14.00;10.75;;;640.90;2432.00;;;;;;5113566;28;20476;-75
2021/08/15 03:52:28;;;;;;;13.68;10.50;;;640.90;2432.00;;;;;;5111279;28;20484;-76
2021/08/15 03:54:54;;;;;;;12.95;10.52;;;640.90;2432.00;;;;;;5108861;28;20069;-75
2021/08/15 03:57:20;;;;;;;14.93;11.45;;;640.80;2432.00;;;;;;5108941;28;20406;-76
2021/08/15 03:59:46;;;;;;;12.85;10.13;;;640.90;2432.00;;;;;;5108331;28;20468;-76
2021/08/15 04:02:12;;;;;;;14.98;10.98;;;640.80;2432.00;;;;;;5113406;28;20384;-76
2021/08/15 04:04:37;;;;;;;12.25;9.73;;;640.90;2432.00;;;;;;5107450;28;20048;-76
2021/08/15 04:07:04;;;;;;;12.82;11.32;;;640.90;2432.00;;;;;;5114681;28;20020;-76
2021/08/15 04:09:30;;;;;;;14.98;12.68;;;640.90;2432.00;;;;;;5112787;28;20031;-77
2021/08/15 04:11:56;;;;;;;14.07;10.90;;;640.90;2432.00;;;;;;5114690;28;20023;-76
2021/08/15 04:14:22;;;;;;;15.27;11.15;;;665.60;2432.00;;;;;;5114216;28;20015;-76
2021/08/15 04:16:48;;;;;;;17.85;13.18;;;665.60;2432.00;;;;;;5114452;28;20107;-77
2021/08/15 04:19:14;;;;;;;14.05;12.05;;;665.60;2432.00;;;;;;5112755;28;20062;-77
2021/08/15 04:21:40;;;;;;;20.33;14.32;;;665.70;2432.00;;;;;;5114373;28;20024;-76
2021/08/15 04:24:06;;;;;;;20.95;14.52;;;665.70;2432.00;;;;;;5114289;28;20065;-76
2021/08/15 04:26:32;;;;;;;16.98;13.60;;;665.70;2432.00;;;;;;5112403;28;20037;-76
2021/08/15 04:28:57;;;;;;;17.95;15.32;;;665.80;2432.00;;;;;;5114321;28;20065;-76
2021/08/15 04:31:23;;;;;;;19.17;15.45;;;665.80;2432.00;;;;;;5112351;28;20023;-78
2021/08/15 04:33:49;;;;;;;15.70;13.80;;;665.80;2432.00;;;;;;5112630;28;20032;-76
2021/08/15 04:36:15;;;;;;;16.85;14.43;;;665.90;2432.00;;;;;;5113679;28;20030;-76
2021/08/15 04:38:41;;;;;;;17.05;13.75;;;666.00;2432.00;;;;;;5105552;28;20383;-75
2021/08/15 04:41:06;;;;;;;16.25;13.38;;;666.00;2432.00;;;;;;5106438;28;20027;-76
2021/08/15 04:43:33;;;;;;;23.65;14.60;;;666.00;2432.00;;;;;;5113946;28;20023;-78
2021/08/15 04:46:00;;;;;;;19.17;13.55;;;666.10;2432.00;;;;;;5113021;28;20024;-78
2021/08/15 04:48:25;;;;;;;43.83;32.88;;;666.20;2432.00;;;;;;5105424;28;20039;-78
2021/08/15 04:50:51;;;;;;;32.17;24.05;;;666.30;2432.00;;;;;;5104205;28;20031;-78
2021/08/15 04:53:17;;;;;;;28.63;22.15;;;666.40;2432.00;;;;;;5101596;27;20030;-78
2021/08/15 04:55:43;;;;;;;23.92;17.67;;;666.30;2432.00;;;;;;5102525;28;20496;-78
2021/08/15 04:58:08;;;;;;;26.85;21.60;;;666.50;2432.00;;;;;;5107145;28;20031;-79
2021/08/15 05:00:34;;;;;;;28.05;23.02;;;691.30;2432.00;;;;;;5104039;27;20030;-78
2021/08/15 05:03:00;;;;;;;22.70;20.30;;;691.40;2432.00;;;;;;5107114;28;20476;-78
2021/08/15 05:05:26;;;;;;;24.42;20.95;;;691.40;2432.00;;;;;;5104751;28;20070;-78
2021/08/15 05:07:52;;;;;;;22.42;15.68;;;691.50;2432.00;;;;;;5104637;27;20077;-78
2021/08/15 05:10:18;;;;;;;19.48;15.52;;;691.60;2432.00;;;;;;5105858;28;20028;-78
2021/08/15 05:12:45;;;;;;;16.02;14.40;;;691.70;2432.00;;;;;;5102745;28;20077;-78
2021/08/15 05:15:11;;;;;;;16.70;14.63;;;691.80;2432.00;;;;;;5102360;28;20019;-78
2021/08/15 05:17:37;;;;;;;24.05;17.92;;;691.90;2432.00;;;;;;5100914;28;20025;-79
2021/08/15 05:20:03;;;;;;;31.80;26.10;;;692.00;2432.00;;;;;;5103823;28;20031;-78
2021/08/15 05:22:29;;;;;;;59.47;51.72;;;716.80;2432.00;;;;;;5102640;28;20031;-79
2021/08/15 05:24:54;;;;;;;25.20;18.88;;;716.80;2432.00;;;;;;5103580;28;20380;-79
2021/08/15 05:27:20;;;;;;;20.23;15.93;;;716.90;2432.00;;;;;;5105073;28;20388;-79
2021/08/15 05:29:47;;;;;;;17.83;14.50;;;716.90;2432.00;;;;;;5102815;28;20031;-78
2021/08/15 05:32:12;;;;;;;18.10;15.75;;;717.00;2432.00;;;;;;5105709;28;20019;-78
2021/08/15 05:34:38;;;;;;;20.65;14.18;;;717.10;2432.00;;;;;;5102200;28;20038;-79
2021/08/15 05:37:04;;;;;;;19.05;15.45;;;717.30;2432.00;;;;;;5104003;28;20024;-80
2021/08/15 05:39:29;;;;;;;23.10;16.67;;;717.30;2432.00;;;;;;5104004;28;20499;-78
2021/08/15 05:41:55;;;;;;;19.63;16.02;;;717.20;2432.00;;;;;;5106478;28;20472;-78
2021/08/15 05:44:21;;;;;;;25.10;16.25;;;717.20;2432.00;;;;;;5102644;28;20042;-78
2021/08/15 05:46:46;;;;;;;21.67;17.88;;;717.40;2432.00;;;;;;5105429;28;20043;-77
2021/08/15 05:49:12;;;;;;;24.17;17.23;;;717.50;2406.40;;;;;;5104005;28;20035;-76
2021/08/15 05:51:38;;;;;;;23.08;17.73;;;717.50;2406.40;;;;;;5099104;28;20032;-76
2021/08/15 05:54:04;;;;;;;22.08;17.15;;;717.70;2406.40;;;;;;5101065;28;20036;-77
2021/08/15 05:56:33;;;;;;;21.45;16.55;;;742.40;2432.00;;;;;;5100983;28;20073;-76
2021/08/15 05:58:58;;;;;;;23.13;18.02;;;742.60;2406.40;;;;;;5098202;28;20379;-77
2021/08/15 06:01:24;;;;;;;19.35;17.33;;;742.80;2406.40;;;;;;5102711;27;20106;-78
2021/08/15 06:03:50;;;;;;;20.10;17.60;;;742.90;2406.40;;;;;;5133728;27;20042;-77
2021/08/15 06:06:16;;;;;;;21.05;16.95;;;743.00;2380.80;;;;;;5100850;28;20039;-76
2021/08/15 06:08:42;;;;;;;27.02;17.45;;;743.20;2380.80;;;;;;5105779;28;20055;-77
2021/08/15 06:11:08;;;;;;;19.33;16.73;;;768.00;2355.20;;;;;;5106036;28;20387;-77
2021/08/15 06:13:34;;;;;;;20.15;15.02;;;768.10;2329.60;;;;;;5103659;28;20523;-77
2021/08/15 06:15:59;;;;;;;19.23;15.30;;;768.20;2329.60;;;;;;5106807;28;20031;-78
2021/08/15 06:18:25;;;;;;;25.13;14.32;;;768.40;2329.60;;;;;;5102851;28;20027;-78
2021/08/15 06:20:51;;;;;;;17.30;13.40;;;768.50;2278.40;;;;;;5107519;28;20019;-78
2021/08/15 06:23:17;;;;;;;19.85;12.77;;;768.70;2227.20;;;;;;5102709;28;20074;-78
2021/08/15 06:25:42;;;;;;;14.40;12.50;;;793.60;2252.80;;;;;;5104654;28;20035;-77
2021/08/15 06:28:08;;;;;;;18.98;14.63;;;793.70;2252.80;;;;;;5103215;28;20020;-77
2021/08/15 06:30:34;;;;;;;14.93;12.60;;;793.80;2252.80;;;;;;5101305;28;20032;-77
2021/08/15 06:33:01;;;;;;;18.45;12.32;;;793.80;2201.60;;;;;;5104320;28;20028;-77
2021/08/15 06:35:27;;;;;;;18.90;11.63;;;794.10;2227.20;;;;;;5103021;28;20027;-77
2021/08/15 06:37:54;;;;;;;23.42;12.35;;;794.20;2176.00;;;;;;5102739;28;20095;-77
2021/08/15 06:40:22;;;;;;;15.63;11.45;;;794.40;2150.40;;;;;;5102073;28;20711;-77
2021/08/15 06:42:48;;;;;;;16.17;11.13;;;794.30;2176.00;;;;;;5106444;28;20020;-77
2021/08/15 06:45:14;;;;;;;13.10;11.15;;;819.20;2150.40;;;;;;5103858;28;20860;-77
2021/08/15 06:47:39;;;;;;;17.05;12.82;;;819.20;2099.20;;;;;;5102575;28;20026;-77
2021/08/15 06:50:06;;;;;;;15.65;11.80;;;819.30;2099.20;;;;;;5105786;28;20056;-77
2021/08/15 06:52:32;;;;;;;14.00;10.48;;;819.60;2073.60;;;;;;5137087;27;20038;-77
2021/08/15 06:54:59;;;;;;;14.40;9.88;;;819.70;2073.60;;;;;;5106771;28;20016;-77
2021/08/15 06:57:25;;;;;;;13.45;11.48;;;844.80;2073.60;;;;;;5114823;28;20023;-78
2021/08/15 06:59:52;;;;;;;13.27;9.50;;;845.10;2073.60;;;;;;5105462;28;20103;-79
2021/08/15 07:02:18;;;;;;;15.82;10.30;;;845.10;2048.00;;;;;;5104868;27;20024;-78
2021/08/15 07:04:43;;;;;;;14.52;10.07;;;845.50;1996.80;;;;;;5114299;28;20047;-78
2021/08/15 07:07:10;;;;;;;14.43;10.25;;;845.70;1971.20;;;;;;5103122;28;20434;-78
2021/08/15 07:09:35;;;;;;;21.05;17.90;;;870.50;1945.60;;;;;;5104071;28;20028;-78
2021/08/15 07:12:01;;;;;;;15.82;13.25;;;870.60;1894.40;;;;;;5107613;28;20127;-79
2021/08/15 07:14:28;;;;;;;15.90;12.90;;;870.80;1894.40;;;;;;5103484;28;20074;-80
2021/08/15 07:16:56;;;;;;;31.02;27.70;;;870.90;1868.80;;;;;;5102508;28;20447;-82
2021/08/15 07:19:22;;;;;;;18.73;11.88;;;870.90;1868.80;;;;;;5106961;28;20028;-80
2021/08/15 07:21:49;;;;;;;18.15;11.35;;;871.00;1868.80;;;;;;5104630;28;20080;-80
2021/08/15 07:24:15;;;;;;;59.65;54.25;;;870.90;1894.40;;;;;;5110738;28;20345;-81
2021/08/15 07:26:40;;;;;;;17.42;12.65;;;871.10;1868.80;;;;;;5102273;28;20077;-81
2021/08/15 07:29:06;;;;;;;15.75;11.75;;;871.30;1894.40;;;;;;5106864;28;20062;-77
2021/08/15 07:31:32;;;;;;;14.85;11.32;;;871.30;1894.40;;;;;;5106275;28;20499;-78
2021/08/15 07:33:58;;;;;;;16.77;11.73;;;896.30;1843.20;;;;;;5139478;27;20070;-79
2021/08/15 07:36:24;;;;;;;15.20;11.75;;;896.50;1817.60;;;;;;5108104;28;20066;-78
2021/08/15 07:38:50;;;;;;;17.33;12.23;;;896.50;1792.00;;;;;;5105551;28;20060;-80
2021/08/15 07:41:16;;;;;;;12.80;10.32;;;896.90;1766.40;;;;;;5108595;28;20028;-77
2021/08/15 07:43:41;;;;;;;20.30;11.88;;;921.70;1766.40;;;;;;5104575;28;20036;-78
2021/08/15 07:46:08;;;;;;;14.93;10.88;;;921.70;1740.80;;;;;;5107929;28;20035;-77
2021/08/15 07:48:34;;;;;;;20.17;10.82;;;921.80;1740.80;;;;;;5105969;28;20032;-77
2021/08/15 07:51:00;;;;;;;17.88;10.68;;;922.10;1715.20;;;;;;5109854;27;20095;-77
2021/08/15 07:53:27;;;;;;;14.23;9.75;;;922.00;1689.60;;;;;;5106634;28;20123;-76
2021/08/15 07:55:55;;;;;;;14.13;9.75;;;922.10;1689.60;;;;;;5102735;27;20032;-77
2021/08/15 07:58:22;;;;;;;13.60;10.25;;;922.20;1689.60;;;;;;5101396;28;20111;-76
2021/08/15 08:00:49;;;;;;;18.48;10.38;;;922.40;1689.60;;;;;;5108590;28;20020;-77
2021/08/15 08:03:15;;;;;;;12.48;9.63;;;947.20;1664.00;;;;;;5106362;28;20030;-75
2021/08/15 08:05:42;;;;;;;15.18;11.00;;;947.30;1612.80;;;;;;5110304;28;20079;-74
2021/08/15 08:08:08;;;;;;;11.82;9.82;;;947.50;1638.40;;;;;;5109700;28;20028;-75
2021/08/15 08:10:35;;;;;;;11.68;9.02;;;947.50;1612.80;;;;;;5105326;28;20066;-76
2021/08/15 08:13:00;;;;;;;12.65;9.43;;;947.60;1612.80;;;;;;5106714;28;20068;-79
2021/08/15 08:15:26;;;;;;;14.02;10.93;;;947.60;1561.60;;;;;;5107577;28;20032;-78
2021/08/15 08:17:52;;;;;;;14.65;9.43;;;948.10;1561.60;;;;;;5109913;28;20034;-78
2021/08/15 08:20:20;;;;;;;13.85;9.02;;;973.10;1561.60;;;;;;5107547;28;20055;-77
2021/08/15 08:22:49;;;;;;;13.75;9.00;;;973.20;1561.60;;;;;;5130612;27;20092;-77
2021/08/15 08:25:16;;;;;;;15.77;9.40;;;973.20;1536.00;;;;;;5132152;28;20034;-77
2021/08/15 08:27:42;;;;;;;12.07;9.32;;;973.40;1510.40;;;;;;5126894;28;20028;-75
2021/08/15 08:30:09;;;;;;;11.13;8.88;;;973.40;1459.20;;;;;;5110558;28;20381;-75
2021/08/15 08:32:34;;;;;;;13.82;9.55;;;973.50;1484.80;;;;;;5102864;28;20104;-75
2021/08/15 08:35:00;;;;;;;12.23;9.63;;;998.40;1484.80;;;;;;5112468;28;20395;-76
2021/08/15 08:37:26;;;;;;;12.02;8.20;;;998.70;1484.80;;;;;;5104381;28;20027;-76
2021/08/15 08:39:52;;;;;;;9.88;8.48;;;998.60;1459.20;;;;;;5109448;28;20035;-75
2021/08/15 08:42:18;;;;;;;14.05;10.13;;;998.40;1459.20;;;;;;5110572;28;20047;-75
2021/08/15 08:44:44;;;;;;;11.80;8.52;;;998.70;1459.20;;;;;;5104232;28;20020;-76
2021/08/15 08:47:11;;;;;;;9.88;8.50;;;998.60;1433.60;;;;;;5100112;28;20426;-76
2021/08/15 08:49:41;;;;;;;9.18;7.93;;;998.90;1408.00;;;;;;5095727;28;20392;-75
2021/08/15 08:52:07;;;;;;;10.70;8.52;;;999.30;1433.60;;;;;;5105425;28;20020;-76
2021/08/15 08:54:34;;;;;;;9.35;8.25;;;999.20;1382.40;;;;;;5100558;28;20028;-76
2021/08/15 08:57:01;;;;;;;55.58;49.92;;;1024.10;1382.40;;;;;;5100640;28;20036;-76
2021/08/15 08:59:27;;;;;;;12.02;10.77;;;1024.50;1356.80;;;;;;5106054;28;20507;-76
2021/08/15 09:01:53;;;;;;;11.40;8.63;;;1024.60;1331.20;;;;;;5104872;28;20016;-77
2021/08/15 09:04:19;;;;;;;12.30;8.98;;;1024.40;1305.60;;;;;;5104387;28;20048;-76
2021/08/15 09:06:45;;;;;;;10.48;7.90;;;1024.60;1305.60;;;;;;5107630;28;20541;-76
2021/08/15 09:09:12;;;;;;;12.35;8.77;;;1024.90;1331.20;;;;;;5104395;28;20036;-76
2021/08/15 09:11:39;;;;;;;10.00;8.38;;;1049.90;1305.60;;;;;;5101024;28;20024;-75
2021/08/15 09:14:20;;;;;;;14.23;8.90;;;1050.30;1280.00;;;;;;5101105;28;20395;-75
2021/08/15 09:16:50;;;;;;;14.07;12.05;;;1050.40;1254.40;;;;;;5097727;28;20524;-76
2021/08/15 09:19:38;;;;;;;15.52;10.80;;;1075.20;1254.40;;;;;;5110965;28;20199;-76
2021/08/15 09:22:12;;;;;;;39.60;35.58;;;1050.50;1254.40;;;;;;5103481;28;20049;-76
2021/08/15 09:24:58;;;;;;;27.00;24.33;;;1050.10;1228.80;;;;;;5103338;28;20040;-77
2021/08/15 09:27:30;;;;;;;10.05;7.13;;;1050.20;1228.80;;;;;;5103254;28;20028;-73
2021/08/15 09:30:13;;;;;;;11.98;7.20;;;1075.30;1203.20;;;;;;5103838;28;20024;-76
2021/08/15 09:32:46;;;;;;;10.57;7.45;;;1075.90;1177.60;;;;;;5124762;27;20038;-76
2021/08/15 09:35:18;;;;;;;9.82;8.88;;;1100.80;1203.20;;;;;;5098258;28;20031;-76
2021/08/15 09:37:44;;;;;;;11.02;6.97;;;1100.90;1203.20;;;;;;5102946;28;20019;-76
2021/08/15 09:40:29;;;;;;;8.00;6.78;;;1101.40;1152.00;;;;;;5100807;28;20384;-76
2021/08/15 09:42:56;;;;;;;9.60;6.32;;;1101.40;1152.00;;;;;;5098487;28;20047;-76
2021/08/15 09:45:40;;;;;;;8.43;5.85;;;1126.40;1152.00;;;;;;5093940;28;20022;-76
2021/08/15 09:48:40;;;;;;;9.70;6.70;;;1101.70;1126.40;;;;;;5098684;28;20027;-76
2021/08/15 09:51:22;;;;;;;9.15;7.93;;;1126.40;1126.40;;;;;;5099075;28;20028;-73
2021/08/15 09:53:48;;;;;;;9.65;7.55;;;1101.50;1152.00;;;;;;5099747;28;20392;-75
2021/08/15 09:56:14;;;;;;;8.45;7.32;;;1126.40;1152.00;;;;;;5100952;28;20020;-76
2021/08/15 09:58:40;;;;;;;10.55;7.45;;;1126.50;1152.00;;;;;;5099849;28;20019;-76
2021/08/15 10:01:07;;;;;;;8.20;7.18;;;1101.70;1126.40;;;;;;5105480;28;20574;-76
2021/08/15 10:03:41;;;;;;;9.65;7.13;;;1126.60;1126.40;;;;;;5098008;28;20044;-74
2021/08/15 10:06:13;;;;;;;7.50;6.53;;;1126.40;1100.80;;;;;;5098406;28;20044;-74
2021/08/15 10:08:39;;;;;;;9.48;7.88;;;1126.40;1075.20;;;;;;5101843;28;20363;-74
2021/08/15 10:11:06;;;;;;;9.40;7.30;;;1126.70;1100.80;;;;;;5103687;28;20039;-74
2021/08/15 10:13:32;;;;;;;9.45;7.78;;;1127.10;1075.20;;;;;;5100663;28;20031;-74
2021/08/15 10:16:02;;;;;;;10.10;7.18;;;1152.00;1049.60;;;;;;5104555;28;20026;-74
2021/08/15 10:18:29;;;;;;;15.05;8.77;;;1127.10;1024.00;;;;;;5102048;28;20028;-74
2021/08/15 10:21:11;;;;;;;9.48;7.35;;;1152.10;1049.60;;;;;;5097816;28;20077;-74
2021/08/15 10:23:40;;;;;;;8.93;7.32;;;1152.10;1049.60;;;;;;5102510;28;20780;-74
2021/08/15 10:26:24;;;;;;;12.60;7.43;;;1152.10;1049.60;;;;;;5106389;28;20408;-74
2021/08/15 10:28:51;;;;;;;10.70;7.30;;;1152.10;1049.60;;;;;;5104075;28;20035;-74
2021/08/15 10:31:16;;;;;;;8.10;6.43;;;1127.20;1075.20;;;;;;5107636;28;20058;-75
2021/08/15 10:33:53;;;;;;;8.27;6.88;;;1152.10;1024.00;;;;;;5101422;28;20074;-74
2021/08/15 10:36:19;;;;;;;10.68;6.70;;;1152.60;1024.00;;;;;;5103000;28;20035;-74
2021/08/15 10:38:46;;;;;;;7.65;6.68;;;1152.70;1024.00;;;;;;5103656;28;20016;-74
2021/08/15 10:41:12;;;;;;;10.05;6.63;;;1152.60;1024.00;;;;;;5101470;27;20027;-74
2021/08/15 10:43:38;;;;;;;7.55;6.72;;;1152.80;1024.00;;;;;;5104443;28;20024;-74
2021/08/15 10:46:18;;;;;;;11.88;6.65;;;1152.60;1024.00;;;;;;5100445;28;20073;-74
2021/08/15 10:48:54;;;;;;;10.55;6.40;;;1152.70;998.40;;;;;;5106327;28;20024;-75
2021/08/15 10:51:51;;;;;;;7.57;5.68;;;1152.70;998.40;;;;;;5101461;28;20020;-74
2021/08/15 10:54:26;;;;;;;7.50;6.00;;;1152.70;998.40;;;;;;5102770;28;20012;-74
2021/08/15 10:56:59;;;;;;;9.98;6.10;;;1152.80;1024.00;;;;;;5106138;27;20057;-74
2021/08/15 10:59:33;;;;;;;8.82;5.80;;;1177.60;1024.00;;;;;;5102708;28;20068;-74
2021/08/15 11:02:12;;;;;;;8.48;6.15;;;1152.80;1024.00;;;;;;5103500;28;20027;-75
2021/08/15 11:04:39;;;;;;;8.98;6.15;;;1177.60;1024.00;;;;;;5100208;28;20036;-74
2021/08/15 11:07:06;;;;;;;10.35;6.60;;;1152.80;1024.00;;;;;;5105582;28;20032;-75
2021/08/15 11:09:57;;;;;;;14.23;7.40;;;1177.60;1024.00;;;;;;5106162;28;20024;-74
2021/08/15 11:12:24;;;;;;;10.55;6.85;;;1152.60;1024.00;;;;;;5104154;28;20019;-74
2021/08/15 11:14:57;;;;;;;9.23;6.43;;;1152.80;1024.00;;;;;;5106239;27;20105;-74
2021/08/15 11:17:24;;;;;;;6.72;5.93;;;1152.70;1024.00;;;;;;5103238;28;20028;-75
2021/08/15 11:19:50;;;;;;;9.50;6.60;;;1152.10;1024.00;;;;;;5100413;28;20015;-74
2021/08/15 11:22:24;;;;;;;8.85;6.20;;;1152.10;1024.00;;;;;;5103530;28;20046;-74
2021/08/15 11:25:03;;;;;;;12.03;7.00;;;1152.60;1024.00;;;;;;5103435;28;20464;-73
2021/08/15 11:27:31;;;;;;;8.85;6.80;;;1152.60;1024.00;;;;;;5109138;28;20482;-75
2021/08/15 11:30:04;;;;;;;9.38;6.32;;;1152.80;1024.00;;;;;;5107442;28;20028;-74
2021/08/15 11:32:31;;;;;;;14.32;7.50;;;1177.80;1024.00;;;;;;5107933;28;20019;-74
2021/08/15 11:35:01;;;;;;;7.03;6.28;;;1178.20;998.40;;;;;;5103976;28;20032;-75
2021/08/15 11:37:46;;;;;;;10.60;8.02;;;1178.30;972.80;;;;;;5101955;28;20040;-74
2021/08/15 11:40:18;;;;;;;;;;;1203.30;998.40;;;;;;5102128;28;20020;-74
2021/08/15 11:42:54;;;;;;;9.02;6.28;;;1203.40;998.40;;;;;;5103190;28;19908;-74
2021/08/15 11:45:27;;;;;;;7.18;6.47;;;1178.40;972.80;;;;;;5106748;28;20026;-74
2021/08/15 11:47:53;;;;;;;8.02;6.75;;;1203.30;998.40;;;;;;5103774;28;20078;-74
2021/08/15 11:50:20;;;;;;;12.23;6.38;;;1178.20;972.80;;;;;;5104305;28;20476;-74
2021/08/15 11:52:47;;;;;;;16.13;7.35;;;1203.30;972.80;;;;;;5104101;28;20026;-74
2021/08/15 11:55:23;;;;;;;7.38;6.65;;;1203.20;998.40;;;;;;5100739;28;20107;-74
2021/08/15 11:57:51;;;;;;;29.23;9.07;;;1203.40;972.80;;;;;;5106713;28;20027;-74
2021/08/15 12:00:27;;;;;;;10.88;5.85;;;1203.50;947.20;;;;;;5103281;28;20015;-74
2021/08/15 12:03:13;;;;;;;10.38;6.65;;;1203.40;972.80;;;;;;5105885;28;20028;-74
2021/08/15 12:06:02;;;;;;;9.65;6.07;;;1203.30;972.80;;;;;;5103090;28;20083;-74